Dades meteomassalio
Diari Summary for Octubre 6, 2017 Units:  Metric    English   Both
« Previous Day
Next Day »
Diari Semanal Mensual Anual Personalitzat
  Maxima: Minima: Mijana:
Temperatura: -17.8 °C -10.7 °C -7.3 °C
Rosada: -17.8 °C -13.5 °C -12 °C
Humitat: Humidity % 43 % 58 %
Velocitat del vent: 0 km/h 9 km/h 39.1 km/h
Racha vent: 0 km/h - -
Vent:- - SSW
Pressio: 0 hPa 34520.3 hPa -
Pluja: 0 mm    
Historical Graphs
 
 
Tabular Data for Octubre 6, 2017
Time Temperature Dew Point Pressure Wind Wind Speed Wind Gust Humidity Rainfall Rate (Hourly) solar Conditions
-17.8 °C -17.8 °C 0 hPa Calm     Humidity % 0 mm SolarRadiationWatts/m^2 W/m2 Conditions
00:00 -6.7 °C -11 °C 34591.4 hPa SSW 32.8 km/h 32.8 km/h 61 % 0 mm 0.0 W/m2 CLR
00:05 -6.7 °C -11 °C 34601.5 hPa South 32.8 km/h 32.8 km/h 61 % 0 mm 0.0 W/m2 CLR
00:15 -7 °C -11.2 °C 34601.5 hPa SSW 44.7 km/h 44.7 km/h 62 % 0 mm 0.0 W/m2 CLR
00:20 -7 °C -11.2 °C 34601.5 hPa SSW 32.8 km/h 36.5 km/h 62 % 0 mm 0.0 W/m2 CLR
00:35 -7 °C -11 °C 34601.5 hPa SW 47.6 km/h 47.6 km/h 63 % 0 mm 0.0 W/m2 CLR
00:40 -7 °C -11 °C 34601.5 hPa SW 47.6 km/h 47.6 km/h 63 % 0 mm 0.0 W/m2 CLR
00:45 -7.3 °C -11.2 °C 34601.5 hPa SSW 41.7 km/h 41.7 km/h 64 % 0 mm 0.0 W/m2 CLR
00:55 -7.3 °C -11.2 °C 34601.5 hPa SSW 41.7 km/h 41.7 km/h 64 % 0 mm 0.0 W/m2 CLR
01:00 -7.3 °C -11.2 °C 34601.5 hPa SSW 38.8 km/h 38.8 km/h 64 % 0 mm 0.0 W/m2 CLR
01:05 -7.3 °C -11 °C 34601.5 hPa SW 29.8 km/h 29.8 km/h 65 % 0 mm 0.0 W/m2 CLR
01:10 -7.6 °C -11.3 °C 34591.4 hPa SW 35.7 km/h 35.7 km/h 65 % 0 mm 0.0 W/m2 CLR
01:15 -7.6 °C -11.3 °C 34601.5 hPa SSW 29.8 km/h 29.8 km/h 65 % 0 mm 0.0 W/m2 CLR
01:20 -7.6 °C -11.3 °C 34601.5 hPa SSW 35.7 km/h 35.7 km/h 65 % 0 mm 0.0 W/m2 CLR
01:25 -7.6 °C -11.3 °C 34601.5 hPa South 35.7 km/h 35.7 km/h 65 % 0 mm 0.0 W/m2 CLR
01:30 -7.6 °C -11.3 °C 34601.5 hPa SSW 23.8 km/h 23.8 km/h 65 % 0 mm 0.0 W/m2 CLR
01:35 -7.6 °C -11.3 °C 34591.4 hPa South 10.3 km/h 10.3 km/h 65 % 0 mm 0.0 W/m2 CLR
01:40 -7.9 °C -11.6 °C 34591.4 hPa South 17.9 km/h 17.9 km/h 65 % 0 mm 0.0 W/m2 CLR
01:45 -7.9 °C -11.5 °C 34591.4 hPa South 20.9 km/h 20.9 km/h 66 % 0 mm 0.0 W/m2 CLR
01:55 -8.2 °C -11.8 °C 34601.5 hPa SSW 20.9 km/h 20.9 km/h 66 % 0 mm 0.0 W/m2 CLR
02:00 -8.2 °C -11.8 °C 34601.5 hPa South 31.1 km/h 31.1 km/h 66 % 0 mm 0.0 W/m2 CLR
02:05 -8.2 °C -11.8 °C 34601.5 hPa South 29.8 km/h 29.8 km/h 66 % 0 mm 0.0 W/m2 CLR
02:10 -8.2 °C -11.8 °C 34601.5 hPa SSW 29.8 km/h 29.8 km/h 66 % 0 mm 0.0 W/m2 CLR
02:11 -8.2 °C -11.8 °C 34601.5 hPa SSW 29.8 km/h 29.8 km/h 66 % 0 mm 0.0 W/m2 CLR
02:16 -8.2 °C -11.8 °C 34601.5 hPa South 38.8 km/h 38.8 km/h 66 % 0 mm 0.0 W/m2 CLR
02:21 -7.9 °C -11.5 °C 34601.5 hPa SW 29.8 km/h 29.8 km/h 66 % 0 mm 0.0 W/m2 CLR
02:26 -7.9 °C -11.5 °C 34601.5 hPa SSW 20.8 km/h 20.8 km/h 66 % 0 mm 0.0 W/m2 CLR
02:31 -7.9 °C -11.5 °C 34601.5 hPa SSW 50.7 km/h 50.7 km/h 66 % 0 mm 0.0 W/m2 CLR
02:36 -7.9 °C -11.3 °C 34601.5 hPa SSW 41.7 km/h 41.7 km/h 67 % 0 mm 0.0 W/m2 CLR
02:41 -7.9 °C -11.3 °C 34601.5 hPa SW 44.7 km/h 44.7 km/h 67 % 0 mm 0.0 W/m2 CLR
02:46 -7.9 °C -11.2 °C 34601.5 hPa SSW 36.2 km/h 36.2 km/h 68 % 0 mm 0.0 W/m2 CLR
02:51 -7.9 °C -11.2 °C 34601.5 hPa SW 50.7 km/h 50.7 km/h 68 % 0 mm 0.0 W/m2 CLR
02:56 -7.9 °C -11.2 °C 34601.5 hPa SSW 35.7 km/h 35.7 km/h 68 % 0 mm 0.0 W/m2 CLR
03:01 -7.9 °C -11.2 °C 34601.5 hPa South 35.7 km/h 35.7 km/h 68 % 0 mm 0.0 W/m2 CLR
03:06 -8.2 °C -11.5 °C 34601.5 hPa SSW 35.7 km/h 35.7 km/h 68 % 0 mm 0.0 W/m2 CLR
03:11 -8.2 °C -11.5 °C 34601.5 hPa SSW 29.8 km/h 29.8 km/h 68 % 0 mm 0.0 W/m2 CLR
03:16 -8.2 °C -11.4 °C 34601.5 hPa SSW 36.2 km/h 36.2 km/h 69 % 0 mm 0.0 W/m2 CLR
03:21 -8.2 °C -11.4 °C 34601.5 hPa South 29.8 km/h 29.8 km/h 69 % 0 mm 0.0 W/m2 CLR
03:26 -8.2 °C -11.4 °C 34601.5 hPa SSW 35.7 km/h 35.7 km/h 69 % 0 mm 0.0 W/m2 CLR
03:31 -8.2 °C -11.4 °C 34601.5 hPa SSW 38.8 km/h 38.8 km/h 69 % 0 mm 0.0 W/m2 CLR
03:36 -8.2 °C -11.4 °C 34601.5 hPa SSW 26.9 km/h 26.9 km/h 69 % 0 mm 0.0 W/m2 CLR
03:41 -8.5 °C -11.7 °C 34601.5 hPa SSW 26.9 km/h 26.9 km/h 69 % 0 mm 0.0 W/m2 CLR
03:46 -8.5 °C -11.6 °C 34591.4 hPa SSW 26.9 km/h 26.9 km/h 70 % 0 mm 0.0 W/m2 CLR
03:51 -8.5 °C -11.6 °C 34591.4 hPa South 38.8 km/h 38.8 km/h 70 % 0 mm 0.0 W/m2 CLR
03:56 -8.5 °C -11.6 °C 34591.4 hPa South 29.8 km/h 29.8 km/h 70 % 0 mm 0.0 W/m2 CLR
04:01 -8.8 °C -11.9 °C 34591.4 hPa South 29.8 km/h 29.8 km/h 70 % 0 mm 0.0 W/m2 CLR
04:06 -8.8 °C -11.9 °C 34591.4 hPa SW 36.2 km/h 36.2 km/h 70 % 0 mm 0.0 W/m2 CLR
04:08 -8.8 °C -11.9 °C 34591.4 hPa South 36.2 km/h 36.2 km/h 70 % 0 mm 0.0 W/m2 CLR
04:13 -8.8 °C -11.9 °C 34591.4 hPa SSW 29.8 km/h 29.8 km/h 70 % 0 mm 0.0 W/m2 CLR
04:18 -8.8 °C -11.8 °C 34591.4 hPa SSW 26.9 km/h 26.9 km/h 71 % 0 mm 0.0 W/m2 CLR
04:23 -8.8 °C -11.8 °C 34591.4 hPa SSW 36.2 km/h 36.2 km/h 71 % 0 mm 0.0 W/m2 CLR
04:33 -8.8 °C -11.8 °C 34591.4 hPa SSW 29.8 km/h 29.8 km/h 71 % 0 mm 0.0 W/m2 CLR
04:38 -8.8 °C -11.8 °C 34591.4 hPa SSW 32.8 km/h 32.8 km/h 71 % 0 mm 0.0 W/m2 CLR
04:43 -8.8 °C -11.8 °C 34591.4 hPa SSW 29.8 km/h 29.8 km/h 71 % 0 mm 0.0 W/m2 CLR
04:48 -8.8 °C -11.8 °C 34591.4 hPa SSW 29.8 km/h 29.8 km/h 71 % 0 mm 0.0 W/m2 CLR
04:53 -8.8 °C -11.8 °C 34591.4 hPa SSW 26.9 km/h 26.9 km/h 71 % 0 mm 0.0 W/m2 CLR
04:58 -8.8 °C -11.8 °C 34591.4 hPa South 35.7 km/h 35.7 km/h 71 % 0 mm 0.0 W/m2 CLR
05:03 -8.8 °C -11.8 °C 34591.4 hPa SSW 26.9 km/h 26.9 km/h 71 % 0 mm 0.0 W/m2 CLR
05:14 -9.1 °C -11.9 °C 34591.4 hPa South 17.9 km/h 17.9 km/h 72 % 0 mm 0.0 W/m2 CLR
05:19 -9.1 °C -11.9 °C 34591.4 hPa South 17.9 km/h 17.9 km/h 72 % 0 mm 0.0 W/m2 CLR
05:23 -9.1 °C -11.9 °C 34591.4 hPa South 20.9 km/h 20.9 km/h 72 % 0 mm 0.0 W/m2 CLR
05:24 -9.1 °C -11.9 °C 34591.4 hPa SSW 23.3 km/h 23.3 km/h 72 % 0 mm 0.0 W/m2 CLR
05:27 -9.4 °C -12.2 °C 34591.4 hPa SSW 20.8 km/h 20.8 km/h 72 % 0 mm 0.0 W/m2 CLR
05:32 -9.4 °C -12.2 °C 34591.4 hPa South 29.8 km/h 29.8 km/h 72 % 0 mm 0.0 W/m2 CLR
05:42 -9.4 °C -12.2 °C 34591.4 hPa South 20.9 km/h 20.9 km/h 72 % 0 mm 0.0 W/m2 CLR
05:47 -9.4 °C -12.2 °C 34591.4 hPa South 15 km/h 15 km/h 72 % 0 mm 0.0 W/m2 CLR
05:57 -9.4 °C -12.2 °C 34591.4 hPa SSW 29.8 km/h 29.8 km/h 72 % 0 mm 0.0 W/m2 CLR
06:02 -9.4 °C -12.2 °C 34591.4 hPa SSW 38.8 km/h 38.8 km/h 72 % 0 mm 0.0 W/m2 CLR
06:08 -9.4 °C -12.2 °C 34591.4 hPa SSW 26.9 km/h 26.9 km/h 72 % 0 mm 0.0 W/m2 CLR
06:13 -9.4 °C -12.2 °C 34591.4 hPa South 32.8 km/h 32.8 km/h 72 % 0 mm 0.0 W/m2 CLR
06:18 -9.4 °C -12.2 °C 34591.4 hPa SSW 38.8 km/h 38.8 km/h 72 % 0 mm 0.0 W/m2 CLR
06:23 -9.1 °C -11.9 °C 34591.4 hPa SSW 32.8 km/h 32.8 km/h 72 % 0 mm 0.0 W/m2 CLR
06:28 -9.1 °C -11.9 °C 34591.4 hPa SSW 29.8 km/h 29.8 km/h 72 % 0 mm 0.0 W/m2 CLR
06:33 -9.1 °C -11.9 °C 34591.4 hPa SSW 29.8 km/h 29.8 km/h 72 % 0 mm 0.0 W/m2 CLR
06:38 -9.1 °C -11.9 °C 34591.4 hPa South 29.8 km/h 29.8 km/h 72 % 0 mm 0.0 W/m2 CLR
06:43 -9.4 °C -12.2 °C 34601.5 hPa South 26.9 km/h 26.9 km/h 72 % 0 mm 0.0 W/m2 CLR
06:48 -9.4 °C -12.2 °C 34591.4 hPa SW 26.9 km/h 26.9 km/h 72 % 0 mm 0.0 W/m2 CLR
06:53 -9.8 °C -12.6 °C 34591.4 hPa SSE 20.9 km/h 20.9 km/h 72 % 0 mm 0.0 W/m2 CLR
06:58 -9.8 °C -12.6 °C 34601.5 hPa South 15 km/h 15 km/h 72 % 0 mm 0.0 W/m2 CLR
07:03 -9.8 °C -12.6 °C 34601.5 hPa SSW 26.9 km/h 26.9 km/h 72 % 0 mm 0.0 W/m2 CLR
07:08 -9.8 °C -12.6 °C 34601.5 hPa SSW 23.8 km/h 23.8 km/h 72 % 0 mm 0.0 W/m2 CLR
07:13 -9.8 °C -12.6 °C 34601.5 hPa SSW 35.7 km/h 35.7 km/h 72 % 0 mm 0.0 W/m2 CLR
07:18 -9.8 °C -12.6 °C 34601.5 hPa South 9 km/h 9.7 km/h 72 % 0 mm 0.0 W/m2 CLR
07:28 -10.1 °C -12.8 °C 34601.5 hPa South 35.7 km/h 35.7 km/h 72 % 0 mm 0.0 W/m2 CLR
07:33 -10.1 °C -12.8 °C 34601.5 hPa SSE 23.8 km/h 23.8 km/h 72 % 0 mm 0.0 W/m2 CLR
07:38 -10.4 °C -13.1 °C 34601.5 hPa South 15 km/h 15 km/h 72 % 0 mm 0.0 W/m2 CLR
07:43 -10.4 °C -13.1 °C 34601.5 hPa South 29.8 km/h 29.8 km/h 72 % 0 mm 0.0 W/m2 CLR
07:48 -10.4 °C -13.1 °C 34601.5 hPa SSW 26.9 km/h 26.9 km/h 72 % 0 mm 0.0 W/m2 CLR
07:53 -10.4 °C -13.1 °C 34601.5 hPa South 15 km/h 15 km/h 72 % 0 mm 0.0 W/m2 CLR
07:58 -10.4 °C -13.1 °C 34601.5 hPa South 23.8 km/h 23.8 km/h 72 % 0 mm 0.0 W/m2 CLR
08:03 -10.4 °C -13.1 °C 34611.7 hPa South 11.9 km/h 11.9 km/h 72 % 0 mm 5.0 W/m2 OVC
08:08 -10.7 °C -13.4 °C 34611.7 hPa SSE 26.9 km/h 26.9 km/h 72 % 0 mm 7.0 W/m2 BKN
08:13 -10.7 °C -13.4 °C 34611.7 hPa South 23.8 km/h 23.8 km/h 72 % 0 mm 11.0 W/m2 BKN
08:18 -10.7 °C -13.5 °C 34611.7 hPa SSW 29.8 km/h 29.8 km/h 71 % 0 mm 14.0 W/m2 BKN
08:23 -10.7 °C -13.5 °C 34611.7 hPa SSW 26.9 km/h 26.9 km/h 71 % 0 mm 16.0 W/m2 BKN
08:28 -10.4 °C -13.2 °C 34611.7 hPa SSW 20.9 km/h 20.9 km/h 71 % 0 mm 19.0 W/m2 BKN
08:33 -10.4 °C -13.3 °C 34611.7 hPa South 23.8 km/h 23.8 km/h 70 % 0 mm 28.0 W/m2 BKN
08:38 -10.1 °C -13.1 °C 34611.7 hPa South 26.9 km/h 26.9 km/h 70 % 0 mm 37.0 W/m2 BKN
08:43 -10.1 °C -13.1 °C 34611.7 hPa South 18.2 km/h 18.2 km/h 70 % 0 mm 49.0 W/m2 SCT
08:48 -9.8 °C -12.7 °C 34611.7 hPa South 18.2 km/h 18.2 km/h 70 % 0 mm 60.0 W/m2 SCT
08:53 -9.8 °C -12.7 °C 34611.7 hPa South 32.8 km/h 32.8 km/h 70 % 0 mm 76.0 W/m2 SCT
08:58 -9.4 °C -12.6 °C 34611.7 hPa South 15 km/h 15 km/h 69 % 0 mm 90.0 W/m2 CLR
09:03 -9.4 °C -12.7 °C 34625.2 hPa South 29.8 km/h 29.8 km/h 68 % 0 mm 95.0 W/m2 CLR
09:08 -9.1 °C -12.4 °C 34611.7 hPa SSW 29.8 km/h 29.8 km/h 68 % 0 mm 123.0 W/m2 CLR
09:13 -9.1 °C -12.6 °C 34625.2 hPa SSW 41.7 km/h 41.7 km/h 67 % 0 mm 120.0 W/m2 CLR
09:18 -8.8 °C -12.2 °C 34625.2 hPa SSW 53.6 km/h 53.6 km/h 67 % 0 mm 160.0 W/m2 CLR
09:23 -8.8 °C -12.2 °C 34625.2 hPa SSW 32.8 km/h 32.8 km/h 67 % 0 mm 172.0 W/m2 CLR
09:33 -8.5 °C -12.1 °C 34625.2 hPa SSW 29.8 km/h 29.8 km/h 66 % 0 mm 211.0 W/m2 CLR
09:38 -8.5 °C -12.1 °C 34625.2 hPa SW 38.8 km/h 38.8 km/h 66 % 0 mm 230.0 W/m2 CLR
09:48 -8.5 °C -12.2 °C 34625.2 hPa SSW 50.7 km/h 50.7 km/h 65 % 0 mm 260.0 W/m2 CLR
09:53 -8.2 °C -11.9 °C 34625.2 hPa SSW 32.8 km/h 32.8 km/h 65 % 0 mm 274.0 W/m2 CLR
10:03 -8.2 °C -12.1 °C 34625.2 hPa SSW 49.2 km/h 49.2 km/h 64 % 0 mm 304.0 W/m2 CLR
10:08 -8.2 °C -12.1 °C 34625.2 hPa SSW 47.6 km/h 47.6 km/h 64 % 0 mm 318.0 W/m2 CLR
10:13 -8.2 °C -12.1 °C 34625.2 hPa SW 32.8 km/h 32.8 km/h 64 % 0 mm 332.0 W/m2 CLR
10:18 -7.9 °C -12 °C 34625.2 hPa SSW 44.7 km/h 44.7 km/h 62 % 0 mm 346.0 W/m2 CLR
10:23 -7.9 °C -12 °C 34635.4 hPa SW 44.7 km/h 44.7 km/h 62 % 0 mm 364.0 W/m2 CLR
10:28 -7.9 °C -12 °C 34635.4 hPa SSW 44.7 km/h 44.7 km/h 62 % 0 mm 378.0 W/m2 CLR
10:33 -7.9 °C -12.1 °C 34635.4 hPa SSW 35.7 km/h 35.7 km/h 61 % 0 mm 392.0 W/m2 CLR
10:43 -7.6 °C -11.8 °C 34635.4 hPa SSW 62.6 km/h 62.6 km/h 61 % 0 mm 417.0 W/m2 CLR
10:48 -7.6 °C -11.8 °C 34635.4 hPa SSW 49.2 km/h 49.2 km/h 61 % 0 mm 432.0 W/m2 CLR
10:53 -7.6 °C -11.8 °C 34635.4 hPa SW 50.7 km/h 50.7 km/h 61 % 0 mm 443.0 W/m2 CLR
10:58 -7.6 °C -12 °C 34635.4 hPa SW 41.7 km/h 41.7 km/h 60 % 0 mm 452.0 W/m2 CLR
11:03 -7.6 °C -12.1 °C 34635.4 hPa SW 35.7 km/h 35.7 km/h 59 % 0 mm 466.0 W/m2 CLR
11:08 -7.3 °C -12 °C 34635.4 hPa SSW 44.7 km/h 44.7 km/h 58 % 0 mm 482.0 W/m2 CLR
11:13 -7.3 °C -12 °C 34635.4 hPa SSW 44.1 km/h 44.1 km/h 58 % 0 mm 494.0 W/m2 CLR
11:18 -7.3 °C -12 °C 34635.4 hPa SSW 41.7 km/h 41.7 km/h 58 % 0 mm 501.0 W/m2 CLR
11:19 -7.3 °C -11.8 °C 34635.4 hPa South 29.8 km/h 29.8 km/h 59 % 0 mm 504.0 W/m2 CLR
11:24 -7 °C -11.7 °C 34635.4 hPa South 41.7 km/h 41.7 km/h 58 % 0 mm 513.0 W/m2 CLR
11:29 -7 °C -12 °C 34625.2 hPa SSW 53.6 km/h 53.6 km/h 56 % 0 mm 527.0 W/m2 CLR
11:34 -7 °C -12 °C 34625.2 hPa SSW 44.7 km/h 44.7 km/h 56 % 0 mm 538.0 W/m2 CLR
11:44 -7 °C -12 °C 34625.2 hPa SSW 41.7 km/h 41.7 km/h 56 % 0 mm 557.0 W/m2 CLR
11:49 -7 °C -12.1 °C 34625.2 hPa SSW 47.6 km/h 47.6 km/h 55 % 0 mm 568.0 W/m2 CLR
11:54 -6.7 °C -11.8 °C 34625.2 hPa South 50.7 km/h 50.7 km/h 55 % 0 mm 580.0 W/m2 CLR
11:59 -6.7 °C -11.8 °C 34625.2 hPa South 47.6 km/h 47.6 km/h 55 % 0 mm 585.0 W/m2 CLR
12:04 -6.7 °C -12 °C 34625.2 hPa South 44.7 km/h 44.7 km/h 54 % 0 mm 596.0 W/m2 CLR
12:09 -6.3 °C -11.7 °C 34625.2 hPa SSW 47.6 km/h 47.6 km/h 54 % 0 mm 601.0 W/m2 CLR
12:14 -6.3 °C -11.8 °C 34625.2 hPa SSW 41.7 km/h 41.7 km/h 53 % 0 mm 612.0 W/m2 CLR
12:19 -6.3 °C -11.8 °C 34625.2 hPa WSW 44.1 km/h 44.1 km/h 53 % 0 mm 613.0 W/m2 CLR
12:24 -6.1 °C -11.7 °C 34625.2 hPa SW 47.6 km/h 47.6 km/h 52 % 0 mm 622.0 W/m2 CLR
12:29 -6.1 °C -11.7 °C 34625.2 hPa SW 38.8 km/h 38.8 km/h 52 % 0 mm 631.0 W/m2 CLR
12:34 -6.1 °C -11.6 °C 34625.2 hPa SW 38.8 km/h 38.8 km/h 53 % 0 mm 635.0 W/m2 CLR
12:39 -6.1 °C -11.7 °C 34611.7 hPa WSW 31.1 km/h 31.1 km/h 52 % 0 mm 642.0 W/m2 CLR
12:44 -5.7 °C -11.6 °C 34611.7 hPa SSW 38.8 km/h 38.8 km/h 51 % 0 mm 649.0 W/m2 CLR
12:49 -5.4 °C -11.3 °C 34611.7 hPa SW 44.7 km/h 44.7 km/h 51 % 0 mm 654.0 W/m2 CLR
12:54 -5.7 °C -11.8 °C 34611.7 hPa South 41.7 km/h 41.7 km/h 50 % 0 mm 659.0 W/m2 CLR
13:00 -5.7 °C -11.4 °C 34611.7 hPa SSW 38.8 km/h 38.8 km/h 52 % 0 mm 663.0 W/m2 CLR
13:04 -5.4 °C -11.2 °C 34601.5 hPa SW 47.6 km/h 47.6 km/h 52 % 0 mm 663.0 W/m2 CLR
13:09 -5.4 °C -11.5 °C 34601.5 hPa SW 53.6 km/h 53.6 km/h 50 % 0 mm 666.0 W/m2 CLR
13:15 -5.4 °C -11.3 °C 34601.5 hPa SW 47.6 km/h 47.6 km/h 51 % 0 mm 670.0 W/m2 CLR
13:20 -5.4 °C -11.3 °C 34601.5 hPa WSW 41.7 km/h 41.7 km/h 51 % 0 mm 670.0 W/m2 CLR
13:25 -5.1 °C -11.2 °C 34601.5 hPa SSW 44.7 km/h 44.7 km/h 50 % 0 mm 675.0 W/m2 CLR
13:30 -5.4 °C -11.3 °C 34601.5 hPa SW 35.7 km/h 35.7 km/h 51 % 0 mm 673.0 W/m2 CLR
13:35 -5.1 °C -11.4 °C 34601.5 hPa SW 50.7 km/h 50.7 km/h 49 % 0 mm 677.0 W/m2 CLR
13:40 -5.1 °C -11.4 °C 34601.5 hPa SW 47.6 km/h 47.6 km/h 49 % 0 mm 680.0 W/m2 CLR
13:45 -5.1 °C -11.4 °C 34591.4 hPa SW 50.7 km/h 50.7 km/h 49 % 0 mm 679.0 W/m2 CLR
13:50 -5.1 °C -11.4 °C 34591.4 hPa SSW 50.7 km/h 50.7 km/h 49 % 0 mm 679.0 W/m2 CLR
13:55 -5.1 °C -11.4 °C 34591.4 hPa SSW 41.7 km/h 41.7 km/h 49 % 0 mm 679.0 W/m2 CLR
14:00 -4.8 °C -11.1 °C 34591.4 hPa SW 49.2 km/h 49.2 km/h 49 % 0 mm 680.0 W/m2 CLR
14:05 -4.8 °C -11.1 °C 34577.8 hPa South 41.4 km/h 41.4 km/h 49 % 0 mm 679.0 W/m2 CLR
14:10 -4.8 °C -11.1 °C 34577.8 hPa SW 51.8 km/h 52.8 km/h 49 % 0 mm 679.0 W/m2 CLR
14:15 -4.5 °C -10.8 °C 34577.8 hPa SW 50.7 km/h 50.7 km/h 49 % 0 mm 677.0 W/m2 CLR
14:20 -4.8 °C -11.1 °C 34577.8 hPa SSW 47.6 km/h 47.6 km/h 49 % 0 mm 671.0 W/m2 CLR
14:30 -4.5 °C -11 °C 34567.7 hPa SW 54.4 km/h 54.4 km/h 48 % 0 mm 666.0 W/m2 CLR
14:35 -4.5 °C -11 °C 34567.7 hPa SW 50.7 km/h 50.7 km/h 48 % 0 mm 664.0 W/m2 CLR
14:40 -4.5 °C -11 °C 34567.7 hPa SSW 38.8 km/h 38.8 km/h 48 % 0 mm 661.0 W/m2 CLR
14:45 -4.5 °C -11 °C 34567.7 hPa SSW 44.7 km/h 44.7 km/h 48 % 0 mm 654.0 W/m2 CLR
14:50 -4.5 °C -11.2 °C 34554.1 hPa SSW 50.7 km/h 50.7 km/h 47 % 0 mm 650.0 W/m2 CLR
14:55 -4.5 °C -11.2 °C 34554.1 hPa WSW 44.7 km/h 44.7 km/h 47 % 0 mm 647.0 W/m2 CLR
15:00 -4.2 °C -11.1 °C 34554.1 hPa SSW 53.6 km/h 53.6 km/h 46 % 0 mm 642.0 W/m2 CLR
15:05 -4.5 °C -11.3 °C 34554.1 hPa SW 38.8 km/h 38.8 km/h 46 % 0 mm 633.0 W/m2 CLR
15:07 -4.5 °C -11.3 °C 34554.1 hPa SSW 38.8 km/h 38.8 km/h 46 % 0 mm 631.0 W/m2 CLR
15:12 -4.5 °C -11.3 °C 34544 hPa SSW 56.6 km/h 56.6 km/h 46 % 0 mm 624.0 W/m2 CLR
15:17 -4.2 °C -11.1 °C 34544 hPa SSW 50.7 km/h 50.7 km/h 46 % 0 mm 617.0 W/m2 CLR
15:22 -4.5 °C -11.3 °C 34554.1 hPa SW 38.8 km/h 38.8 km/h 46 % 0 mm 612.0 W/m2 CLR
15:27 -4.2 °C -11.3 °C 34544 hPa SSW 53.6 km/h 53.6 km/h 45 % 0 mm 605.0 W/m2 CLR
15:32 -4.5 °C -11.3 °C 34544 hPa WSW 36.2 km/h 36.2 km/h 46 % 0 mm 596.0 W/m2 CLR
15:37 -4.5 °C -11.3 °C 34544 hPa SW 50.7 km/h 50.7 km/h 46 % 0 mm 589.0 W/m2 CLR
15:42 -4.2 °C -11.1 °C 34544 hPa SW 47.6 km/h 47.6 km/h 46 % 0 mm 577.0 W/m2 CLR
15:47 -4.2 °C -11.3 °C 34544 hPa SSW 54.4 km/h 54.4 km/h 45 % 0 mm 570.0 W/m2 CLR
15:52 -4.2 °C -11.3 °C 34533.8 hPa SSW 50.7 km/h 50.7 km/h 45 % 0 mm 564.0 W/m2 CLR
15:57 -4.2 °C -11.3 °C 34533.8 hPa SW 41.7 km/h 41.7 km/h 45 % 0 mm 554.0 W/m2 CLR
16:02 -4.2 °C -11.3 °C 34533.8 hPa SW 59.5 km/h 59.5 km/h 45 % 0 mm 541.0 W/m2 CLR
16:07 -4.2 °C -11.3 °C 34533.8 hPa WSW 50.7 km/h 50.7 km/h 45 % 0 mm 533.0 W/m2 CLR
16:12 -4.2 °C -11.4 °C 34533.8 hPa SW 50.7 km/h 50.7 km/h 44 % 0 mm 524.0 W/m2 CLR
16:17 -4.2 °C -11.4 °C 34533.8 hPa SSW 44.7 km/h 44.7 km/h 44 % 0 mm 512.0 W/m2 CLR
16:22 -3.9 °C -11.2 °C 34533.8 hPa SSW 35.7 km/h 35.7 km/h 44 % 0 mm 503.0 W/m2 CLR
16:27 -3.9 °C -11.3 °C 34520.3 hPa SW 53.6 km/h 53.6 km/h 43 % 0 mm 490.0 W/m2 CLR
16:32 -4.2 °C -11.4 °C 34520.3 hPa SSW 44.7 km/h 44.7 km/h 44 % 0 mm 475.0 W/m2 CLR
16:37 -4.2 °C -11.4 °C 34520.3 hPa SW 59.5 km/h 59.5 km/h 44 % 0 mm 468.0 W/m2 CLR
16:42 -4.2 °C -11.4 °C 34520.3 hPa SSW 41.4 km/h 41.4 km/h 44 % 0 mm 457.0 W/m2 CLR
16:52 -3.9 °C -11 °C 34520.3 hPa WSW 56.6 km/h 56.6 km/h 45 % 0 mm 425.0 W/m2 CLR
16:57 -3.9 °C -11 °C 34520.3 hPa SW 41.7 km/h 41.7 km/h 45 % 0 mm 411.0 W/m2 CLR
17:02 -3.9 °C -11 °C 34520.3 hPa South 47.6 km/h 47.6 km/h 45 % 0 mm 397.0 W/m2 CLR
17:07 -4.2 °C -11.3 °C 34520.3 hPa SSW 56.6 km/h 56.6 km/h 45 % 0 mm 385.0 W/m2 CLR
17:12 -4.2 °C -11.3 °C 34520.3 hPa SW 56.6 km/h 56.6 km/h 45 % 0 mm 371.0 W/m2 CLR
17:17 -4.2 °C -11.1 °C 34520.3 hPa SW 57 km/h 57 km/h 46 % 0 mm 355.0 W/m2 CLR
17:22 -4.2 °C -11.3 °C 34520.3 hPa WSW 68.6 km/h 68.6 km/h 45 % 0 mm 338.0 W/m2 CLR
17:27 -4.2 °C -11.1 °C 34520.3 hPa SW 65.5 km/h 65.5 km/h 46 % 0 mm 325.0 W/m2 CLR
17:32 -4.2 °C -11.1 °C 34520.3 hPa SSW 50.7 km/h 50.7 km/h 46 % 0 mm 308.0 W/m2 CLR
17:37 -4.2 °C -11.1 °C 34520.3 hPa WSW 62.6 km/h 62.6 km/h 46 % 0 mm 294.0 W/m2 CLR
17:42 -4.5 °C -11.3 °C 34520.3 hPa WSW 51.8 km/h 51.8 km/h 46 % 0 mm 278.0 W/m2 CLR
17:47 -4.5 °C -11.2 °C 34520.3 hPa SW 44.7 km/h 44.7 km/h 47 % 0 mm 265.0 W/m2 CLR
17:52 -4.5 °C -11.2 °C 34520.3 hPa WSW 49.2 km/h 49.2 km/h 47 % 0 mm 248.0 W/m2 CLR
17:57 -4.8 °C -11.4 °C 34520.3 hPa SW 38.8 km/h 38.8 km/h 47 % 0 mm 234.0 W/m2 CLR
18:02 -4.8 °C -11.4 °C 34520.3 hPa SW 62.6 km/h 62.6 km/h 47 % 0 mm 214.0 W/m2 CLR
18:07 -4.8 °C -11.4 °C 34520.3 hPa WSW 47.6 km/h 47.6 km/h 47 % 0 mm 195.0 W/m2 CLR
18:13 -4.8 °C -11.4 °C 34520.3 hPa SW 50.7 km/h 50.7 km/h 47 % 0 mm 181.0 W/m2 CLR
18:17 -4.8 °C -11.4 °C 34520.3 hPa SSW 50.7 km/h 50.7 km/h 47 % 0 mm 158.0 W/m2 CLR
18:22 -4.8 °C -11.4 °C 34520.3 hPa SW 33.6 km/h 33.6 km/h 47 % 0 mm 139.0 W/m2 CLR
18:27 -5.1 °C -11.7 °C 34520.3 hPa WSW 56.6 km/h 56.6 km/h 47 % 0 mm 121.0 W/m2 CLR
18:32 -5.1 °C -11.7 °C 34533.8 hPa WSW 59.5 km/h 59.5 km/h 47 % 0 mm 109.0 W/m2 CLR
18:38 -5.1 °C -11.7 °C 34533.8 hPa WSW 35.7 km/h 35.7 km/h 47 % 0 mm 95.0 W/m2 CLR
18:43 -5.1 °C -11.7 °C 34533.8 hPa WSW 50.7 km/h 50.7 km/h 47 % 0 mm 72.0 W/m2 FEW
18:48 -5.4 °C -12 °C 34533.8 hPa West 38.8 km/h 40.9 km/h 47 % 0 mm 62.0 W/m2 SCT
18:53 -5.4 °C -11.8 °C 34533.8 hPa SW 29.8 km/h 29.8 km/h 48 % 0 mm 53.0 W/m2 SCT
18:58 -5.4 °C -11.8 °C 34533.8 hPa SW 36.2 km/h 36.2 km/h 48 % 0 mm 40.0 W/m2 BKN
19:08 -5.7 °C -11.9 °C 34544 hPa WSW 38.8 km/h 38.8 km/h 49 % 0 mm 23.0 W/m2 BKN
19:13 -5.7 °C -11.9 °C 34544 hPa SSW 50.7 km/h 50.7 km/h 49 % 0 mm 18.0 W/m2 BKN
19:18 -6.1 °C -12.1 °C 34544 hPa SW 35.7 km/h 35.7 km/h 50 % 0 mm 14.0 W/m2 BKN
19:23 -6.1 °C -11.9 °C 34544 hPa SW 41.7 km/h 41.7 km/h 51 % 0 mm 11.0 W/m2 BKN
19:28 -6.1 °C -11.9 °C 34544 hPa SSW 44.7 km/h 44.7 km/h 51 % 0 mm 7.0 W/m2 BKN
19:33 -6.1 °C -11.9 °C 34544 hPa WSW 44.7 km/h 44.7 km/h 51 % 0 mm 5.0 W/m2 OVC
19:38 -6.1 °C -11.9 °C 34544 hPa West 50.7 km/h 50.7 km/h 51 % 0 mm 0.0 W/m2 OVC
19:43 -6.3 °C -12.2 °C 34554.1 hPa SW 41.7 km/h 41.7 km/h 51 % 0 mm 0.0 W/m2 OVC
19:48 -6.3 °C -12.2 °C 34554.1 hPa WSW 29.8 km/h 29.8 km/h 51 % 0 mm 0.0 W/m2 CLR
19:53 -6.3 °C -12.2 °C 34554.1 hPa SW 35.7 km/h 35.7 km/h 51 % 0 mm 0.0 W/m2 CLR
19:58 -6.3 °C -12.2 °C 34554.1 hPa WSW 41.7 km/h 41.7 km/h 51 % 0 mm 0.0 W/m2 CLR
20:03 -6.7 °C -12.3 °C 34567.7 hPa SW 38.8 km/h 38.8 km/h 52 % 0 mm 0.0 W/m2 CLR
20:08 -6.7 °C -12.3 °C 34567.7 hPa SW 53.6 km/h 53.6 km/h 52 % 0 mm 0.0 W/m2 CLR
20:13 -6.7 °C -12.3 °C 34567.7 hPa SW 47.6 km/h 47.6 km/h 52 % 0 mm 0.0 W/m2 CLR
20:18 -6.7 °C -12.3 °C 34567.7 hPa SW 53.6 km/h 53.6 km/h 52 % 0 mm 0.0 W/m2 CLR
20:23 -6.7 °C -12.3 °C 34577.8 hPa SW 64.7 km/h 64.7 km/h 52 % 0 mm 0.0 W/m2 CLR
20:28 -7 °C -12.6 °C 34577.8 hPa SW 50.7 km/h 50.7 km/h 52 % 0 mm 0.0 W/m2 CLR
20:33 -7 °C -12.6 °C 34577.8 hPa WSW 47.6 km/h 47.6 km/h 52 % 0 mm 0.0 W/m2 CLR
20:38 -7 °C -12.7 °C 34577.8 hPa SW 47.6 km/h 47.6 km/h 51 % 0 mm 0.0 W/m2 CLR
20:43 -7 °C -12.7 °C 34577.8 hPa SSW 50.7 km/h 50.7 km/h 51 % 0 mm 0.0 W/m2 CLR
20:48 -7.3 °C -13.1 °C 34591.4 hPa SW 35.7 km/h 35.7 km/h 51 % 0 mm 0.0 W/m2 CLR
20:53 -7.3 °C -13.1 °C 34591.4 hPa SW 47.6 km/h 47.6 km/h 51 % 0 mm 0.0 W/m2 CLR
20:58 -7.3 °C -13.1 °C 34591.4 hPa SW 53.6 km/h 53.6 km/h 51 % 0 mm 0.0 W/m2 CLR
21:03 -7.3 °C -13.1 °C 34591.4 hPa SSW 50.7 km/h 50.7 km/h 51 % 0 mm 0.0 W/m2 CLR
21:08 -7.3 °C -13.1 °C 34591.4 hPa SSW 47.6 km/h 47.6 km/h 51 % 0 mm 0.0 W/m2 CLR
21:13 -7.6 °C -13.2 °C 34591.4 hPa SW 50.7 km/h 50.7 km/h 52 % 0 mm 0.0 W/m2 CLR
21:18 -7.6 °C -13.2 °C 34601.5 hPa SSW 41.4 km/h 41.4 km/h 52 % 0 mm 0.0 W/m2 CLR
21:23 -7.6 °C -13.2 °C 34591.4 hPa SW 56.6 km/h 56.6 km/h 52 % 0 mm 0.0 W/m2 CLR
21:28 -7.6 °C -13.2 °C 34601.5 hPa SSW 41.7 km/h 41.7 km/h 52 % 0 mm 0.0 W/m2 CLR
21:33 -7.6 °C -13 °C 34601.5 hPa SSW 38.8 km/h 38.8 km/h 53 % 0 mm 0.0 W/m2 CLR
21:48 -7.9 °C -13.2 °C 34601.5 hPa SSW 47.6 km/h 47.6 km/h 54 % 0 mm 0.0 W/m2 CLR
21:53 -7.9 °C -13.3 °C 34601.5 hPa SSW 50.7 km/h 50.7 km/h 53 % 0 mm 0.0 W/m2 CLR
21:58 -7.9 °C -13.3 °C 34611.7 hPa SSW 50.7 km/h 50.7 km/h 53 % 0 mm 0.0 W/m2 CLR
22:03 -7.9 °C -13.3 °C 34611.7 hPa SSW 44.7 km/h 44.7 km/h 53 % 0 mm 0.0 W/m2 CLR
22:08 -7.9 °C -13.3 °C 34611.7 hPa SSW 47.6 km/h 47.6 km/h 53 % 0 mm 0.0 W/m2 CLR
22:13 -8.2 °C -13.4 °C 34611.7 hPa South 35.7 km/h 35.7 km/h 54 % 0 mm 0.0 W/m2 CLR
22:18 -8.2 °C -13.3 °C 34625.2 hPa SSW 26.9 km/h 26.9 km/h 55 % 0 mm 0.0 W/m2 CLR
22:23 -8.2 °C -13.3 °C 34625.2 hPa SSW 41.4 km/h 41.4 km/h 55 % 0 mm 0.0 W/m2 CLR
22:28 -8.2 °C -13.3 °C 34625.2 hPa South 28.5 km/h 28.5 km/h 55 % 0 mm 0.0 W/m2 CLR
22:33 -8.2 °C -13.3 °C 34625.2 hPa SSW 38.8 km/h 38.8 km/h 55 % 0 mm 0.0 W/m2 CLR
22:38 -8.2 °C -13.3 °C 34625.2 hPa South 50.7 km/h 50.7 km/h 55 % 0 mm 0.0 W/m2 CLR
22:43 -8.2 °C -13.1 °C 34625.2 hPa South 38.8 km/h 38.8 km/h 56 % 0 mm 0.0 W/m2 CLR
22:48 -8.5 °C -13.4 °C 34625.2 hPa SSW 32.8 km/h 32.8 km/h 56 % 0 mm 0.0 W/m2 CLR
22:53 -8.5 °C -13.3 °C 34625.2 hPa SSW 29.8 km/h 29.8 km/h 57 % 0 mm 0.0 W/m2 CLR
22:58 -8.5 °C -13.3 °C 34625.2 hPa SSW 29.8 km/h 29.8 km/h 57 % 0 mm 0.0 W/m2 CLR
23:03 -8.5 °C -13.3 °C 34625.2 hPa SSW 44.7 km/h 44.7 km/h 57 % 0 mm 0.0 W/m2 CLR
23:08 -8.5 °C -13.2 °C 34625.2 hPa South 44.7 km/h 44.7 km/h 58 % 0 mm 0.0 W/m2 CLR
23:13 -8.8 °C -13.4 °C 34635.4 hPa South 38.8 km/h 38.8 km/h 58 % 0 mm 0.0 W/m2 CLR
23:18 -8.8 °C -13.4 °C 34625.2 hPa SSW 32.8 km/h 32.8 km/h 58 % 0 mm 0.0 W/m2 CLR
23:23 -8.8 °C -13.4 °C 34635.4 hPa South 44.7 km/h 44.7 km/h 58 % 0 mm 0.0 W/m2 CLR
23:28 -8.8 °C -13.4 °C 34635.4 hPa SSW 29.8 km/h 29.8 km/h 58 % 0 mm 0.0 W/m2 CLR
23:33 -8.8 °C -13.4 °C 34635.4 hPa SSW 38.8 km/h 38.8 km/h 58 % 0 mm 0.0 W/m2 CLR
23:38 -8.8 °C -13.4 °C 34645.6 hPa SW 32.8 km/h 32.8 km/h 58 % 0 mm 0.0 W/m2 CLR
23:43 -8.8 °C -13.4 °C 34645.6 hPa SW 50.7 km/h 50.7 km/h 58 % 0 mm 0.0 W/m2 CLR
23:53 -8.8 °C -13.4 °C 34645.6 hPa SSW 35.7 km/h 37.5 km/h 58 % 0 mm 0.0 W/m2 CLR
23:58 -8.8 °C -13.4 °C 34645.6 hPa South 41.7 km/h 41.7 km/h 58 % 0 mm 0.0 W/m2 CLR
Lo Temps de Massalio
Compliments of Weather Underground - 1.25 mb